Time;durP1;ratioP1;P1;durP2;ratioP2;P2;SDS_P1;SDS_P2;PMS_P1;PMS_P2;Temp;Humidity;BMP_temperature;BMP_pressure;BME280_temperature;BME280_humidity;BME280_pressure;Samples;Min_cycle;Max_cycle;Signal;HPM_P1;HPM_P2
2023/03/21 00:02:11;;;;;;;3.10;1.52;;;10.30;99.90;;;;;;4975735;28;20097;-93
2023/03/21 00:04:36;;;;;;;3.97;1.58;;;10.20;99.90;;;;;;4959283;28;20510;-92
2023/03/21 00:07:02;;;;;;;1.48;1.33;;;10.20;99.90;;;;;;4959007;28;20023;-92
2023/03/21 00:09:28;;;;;;;2.80;1.38;;;10.20;99.90;;;;;;4959350;28;20019;-91
2023/03/21 00:11:53;;;;;;;1.90;1.55;;;10.20;99.90;;;;;;4959675;28;20026;-91
2023/03/21 00:14:19;;;;;;;2.42;1.60;;;10.10;99.90;;;;;;4959329;28;20035;-91
2023/03/21 00:16:49;;;;;;;4.40;2.53;;;10.10;99.90;;;;;;4958796;28;20138;-91
2023/03/21 00:19:16;;;;;;;2.20;1.80;;;10.10;99.90;;;;;;4959140;28;20038;-92
2023/03/21 00:21:44;;;;;;;5.03;2.05;;;10.10;99.90;;;;;;4959142;28;20027;-92
2023/03/21 00:24:10;;;;;;;2.78;2.17;;;10.00;99.90;;;;;;4959170;28;20512;-92
2023/03/21 00:26:37;;;;;;;4.18;2.30;;;10.00;99.90;;;;;;4959299;28;20030;-91
2023/03/21 00:29:02;;;;;;;3.58;2.33;;;10.00;99.90;;;;;;4958876;28;20097;-92
2023/03/21 00:31:28;;;;;;;3.72;2.58;;;10.00;99.90;;;;;;4958651;28;20023;-92
2023/03/21 00:33:53;;;;;;;4.82;2.60;;;10.00;99.90;;;;;;4958846;28;20060;-90
2023/03/21 00:36:20;;;;;;;3.88;3.00;;;9.90;99.90;;;;;;4959287;28;20062;-91
2023/03/21 00:38:46;;;;;;;6.95;3.50;;;9.90;99.90;;;;;;4959051;28;20023;-91
2023/03/21 00:41:15;;;;;;;4.85;2.53;;;9.90;99.90;;;;;;4959058;28;20073;-91
2023/03/21 00:43:41;;;;;;;4.90;2.85;;;9.90;99.90;;;;;;4959135;28;20030;-91
2023/03/21 00:46:06;;;;;;;6.82;3.08;;;9.80;99.90;;;;;;4959076;28;20396;-91
2023/03/21 00:48:32;;;;;;;5.38;3.38;;;9.80;99.90;;;;;;4977228;28;20033;-92
2023/03/21 00:50:59;;;;;;;6.32;3.60;;;9.80;99.90;;;;;;4959625;28;20035;-91
2023/03/21 00:53:25;;;;;;;4.90;3.42;;;9.70;99.90;;;;;;4960186;28;20170;-91
2023/03/21 00:55:51;;;;;;;5.70;3.60;;;9.70;99.90;;;;;;4966158;28;20031;-91
2023/03/21 00:58:17;;;;;;;6.47;3.78;;;9.70;99.90;;;;;;4969506;28;20038;-91
2023/03/21 01:00:45;;;;;;;6.43;3.47;;;9.70;99.90;;;;;;4971254;28;20038;-91
2023/03/21 01:03:13;;;;;;;4.95;3.55;;;9.70;99.90;;;;;;4974295;28;20031;-92
2023/03/21 01:08:27;;;;;;;6.68;4.03;;;9.70;99.90;;;;;;4978313;28;20097;-93
2023/03/21 01:10:54;;;;;;;6.28;4.05;;;9.60;99.90;;;;;;4967241;28;20027;-92
2023/03/21 01:13:22;;;;;;;5.65;4.18;;;9.50;99.90;;;;;;4959042;28;20043;-92
2023/03/21 01:15:53;;;;;;;8.45;4.03;;;9.50;99.90;;;;;;4959012;28;20046;-91
2023/03/21 01:18:24;;;;;;;6.82;4.45;;;9.50;99.90;;;;;;4959086;28;20019;-90
2023/03/21 01:20:50;;;;;;;7.00;4.40;;;9.50;99.90;;;;;;4958895;28;20054;-93
2023/03/21 01:23:16;;;;;;;6.88;4.18;;;9.50;99.90;;;;;;4958785;28;20042;-91
2023/03/21 01:25:42;;;;;;;7.28;3.55;;;9.50;99.90;;;;;;4958971;28;20535;-92
2023/03/21 01:28:09;;;;;;;8.93;4.20;;;9.40;99.90;;;;;;4958088;28;20035;-92
2023/03/21 01:30:35;;;;;;;5.93;3.63;;;9.40;99.90;;;;;;4958428;28;20023;-92
2023/03/21 01:33:01;;;;;;;6.15;4.07;;;9.40;99.90;;;;;;4958644;28;20074;-91
2023/03/21 01:35:26;;;;;;;7.07;3.35;;;9.40;99.90;;;;;;4958831;28;20125;-92
2023/03/21 01:37:52;;;;;;;8.55;4.40;;;9.30;99.90;;;;;;4958192;28;20037;-91
2023/03/21 01:40:24;;;;;;;8.38;4.07;;;9.30;99.90;;;;;;4958006;28;20077;-92
2023/03/21 01:42:50;;;;;;;5.35;4.18;;;9.30;99.90;;;;;;4957855;28;20041;-91
2023/03/21 01:45:54;;;;;;;5.97;4.03;;;9.30;99.90;;;;;;4957403;28;20027;-92
2023/03/21 01:48:21;;;;;;;5.57;3.60;;;9.30;99.90;;;;;;4957997;28;20027;-91
2023/03/21 01:50:49;;;;;;;6.15;3.03;;;9.30;99.90;;;;;;4958324;28;20114;-91
2023/03/21 01:53:15;;;;;;;7.50;3.20;;;9.20;99.90;;;;;;4958175;28;20117;-90
2023/03/21 01:55:41;;;;;;;11.38;4.85;;;9.20;99.90;;;;;;4975268;28;20061;-92
2023/03/21 01:58:10;;;;;;;4.68;3.38;;;9.20;99.90;;;;;;4957917;28;20034;-90
2023/03/21 02:00:37;;;;;;;7.05;3.50;;;9.20;99.90;;;;;;4958335;28;20026;-90
2023/03/21 02:03:10;;;;;;;5.10;2.67;;;9.20;99.90;;;;;;4965141;28;20098;-89
2023/03/21 02:05:35;;;;;;;5.38;3.58;;;9.20;99.90;;;;;;4969470;28;20066;-90
2023/03/21 02:08:01;;;;;;;8.23;3.80;;;9.20;99.90;;;;;;4977392;28;20038;-91
2023/03/21 02:10:28;;;;;;;8.35;3.67;;;9.20;99.90;;;;;;4963697;28;20438;-92
2023/03/21 02:12:57;;;;;;;6.50;3.78;;;9.20;99.90;;;;;;4937978;29;20492;-92
2023/03/21 02:15:25;;;;;;;6.22;3.25;;;9.20;99.90;;;;;;4945541;28;20102;-91
2023/03/21 02:18:01;;;;;;;4.22;3.00;;;9.20;99.90;;;;;;4957731;28;20315;-91
2023/03/21 02:21:03;;;;;;;5.47;3.17;;;9.20;99.90;;;;;;4957261;28;20050;-90
2023/03/21 02:24:06;;;;;;;5.57;3.17;;;9.20;99.90;;;;;;4957372;28;20038;-90
2023/03/21 02:26:50;;;;;;;7.68;3.28;;;9.20;99.90;;;;;;4957868;28;20090;-91
2023/03/21 02:29:25;;;;;;;8.95;3.58;;;9.20;99.90;;;;;;4959346;28;20027;-91
2023/03/21 02:32:18;;;;;;;3.90;2.78;;;9.20;99.90;;;;;;4958253;28;20514;-91
2023/03/21 02:35:03;;;;;;;3.50;2.58;;;9.20;99.90;;;;;;4958272;28;20037;-90
2023/03/21 02:37:34;;;;;;;5.63;3.15;;;9.20;99.90;;;;;;4957735;28;20026;-91
2023/03/21 02:39:59;;;;;;;4.72;3.33;;;9.20;99.90;;;;;;4957214;28;20034;-90
2023/03/21 02:42:36;;;;;;;4.25;3.65;;;9.20;99.90;;;;;;4957114;28;20027;-90
2023/03/21 02:45:10;;;;;;;5.45;3.05;;;9.20;99.90;;;;;;4956710;28;20392;-90
2023/03/21 02:47:43;;;;;;;4.55;3.13;;;9.30;99.90;;;;;;4957683;28;20394;-88
2023/03/21 02:50:12;;;;;;;3.95;2.75;;;9.30;99.90;;;;;;4957737;28;20091;-91
2023/03/21 02:52:40;;;;;;;4.53;2.70;;;9.20;99.90;;;;;;4956998;28;20031;-91
2023/03/21 02:55:14;;;;;;;3.83;2.95;;;9.20;99.90;;;;;;4957707;28;20046;-90
2023/03/21 02:57:42;;;;;;;6.20;3.10;;;9.20;99.90;;;;;;4960695;28;20547;-90
2023/03/21 03:00:11;;;;;;;3.78;2.72;;;9.20;99.90;;;;;;4960685;28;20082;-91
2023/03/21 03:02:39;;;;;;;3.80;2.90;;;9.20;99.90;;;;;;4960803;28;20396;-91
2023/03/21 03:05:35;;;;;;;4.93;2.88;;;9.20;99.90;;;;;;4960597;28;20335;-89
2023/03/21 03:08:07;;;;;;;3.15;2.30;;;9.20;99.90;;;;;;4944976;28;20038;-91
2023/03/21 03:10:55;;;;;;;2.70;2.20;;;9.20;99.90;;;;;;4959961;28;20497;-91
2023/03/21 03:13:23;;;;;;;3.83;2.72;;;9.20;99.90;;;;;;4959988;28;20047;-91
2023/03/21 03:16:05;;;;;;;3.65;2.35;;;9.20;99.90;;;;;;4977018;28;20133;-90
2023/03/21 03:18:52;;;;;;;2.85;2.30;;;9.20;99.90;;;;;;4959969;28;20030;-91
2023/03/21 03:21:33;;;;;;;3.45;2.40;;;9.20;99.90;;;;;;4959991;28;20543;-91
2023/03/21 03:24:19;;;;;;;4.35;2.50;;;9.20;99.90;;;;;;4960350;28;20019;-91
2023/03/21 03:26:44;;;;;;;5.28;2.80;;;9.20;99.90;;;;;;4960291;28;20110;-92
2023/03/21 03:29:15;;;;;;;3.97;2.65;;;9.10;99.90;;;;;;4960084;28;20065;-91
2023/03/21 03:32:08;;;;;;;4.22;2.60;;;9.20;99.90;;;;;;4959731;28;20037;-90
2023/03/21 03:34:42;;;;;;;4.07;2.70;;;9.20;99.90;;;;;;4916250;28;20031;-90
2023/03/21 03:37:14;;;;;;;5.15;3.05;;;9.10;99.90;;;;;;4960217;28;20038;-91
2023/03/21 03:39:48;;;;;;;3.58;2.28;;;9.10;99.90;;;;;;4959813;28;20031;-90
2023/03/21 03:42:18;;;;;;;3.45;2.80;;;9.10;99.90;;;;;;4959647;28;20081;-91
2023/03/21 03:44:44;;;;;;;4.78;3.47;;;9.10;99.90;;;;;;4959253;28;20069;-90
2023/03/21 03:47:15;;;;;;;3.25;2.60;;;9.10;99.90;;;;;;4959677;28;20484;-89
2023/03/21 03:49:47;;;;;;;3.00;2.33;;;9.10;99.90;;;;;;4959320;28;20023;-90
2023/03/21 03:52:22;;;;;;;4.50;3.17;;;9.10;99.90;;;;;;4959593;28;20073;-91
2023/03/21 03:54:50;;;;;;;6.03;3.40;;;9.10;99.90;;;;;;4959422;28;20038;-90
2023/03/21 03:57:17;;;;;;;3.17;2.83;;;9.10;99.90;;;;;;4959103;28;20023;-91
2023/03/21 03:59:45;;;;;;;6.10;3.22;;;9.10;99.90;;;;;;4959276;28;20023;-90
2023/03/21 04:02:11;;;;;;;3.80;2.50;;;9.10;99.90;;;;;;4959518;28;20126;-90
2023/03/21 04:04:37;;;;;;;4.32;2.83;;;9.10;99.90;;;;;;4959370;28;20038;-91
2023/03/21 04:07:03;;;;;;;6.40;3.20;;;9.10;99.90;;;;;;4974949;28;20030;-91
2023/03/21 04:09:30;;;;;;;6.93;3.47;;;9.10;99.90;;;;;;4975810;28;20035;-91
2023/03/21 04:11:58;;;;;;;5.40;3.90;;;9.10;99.90;;;;;;4976055;28;20476;-91
2023/03/21 04:14:24;;;;;;;3.50;3.17;;;9.10;99.90;;;;;;4958960;28;20034;-91
2023/03/21 04:16:51;;;;;;;4.65;3.05;;;9.10;99.90;;;;;;4959082;28;20120;-92
2023/03/21 04:19:17;;;;;;;5.03;4.07;;;9.10;99.90;;;;;;4976231;28;20023;-91
2023/03/21 04:21:43;;;;;;;3.97;2.75;;;9.10;99.90;;;;;;4976102;28;20030;-91
2023/03/21 04:24:10;;;;;;;6.00;3.53;;;9.10;99.90;;;;;;4959144;28;20093;-91
2023/03/21 04:26:38;;;;;;;7.13;3.65;;;9.10;99.90;;;;;;4958680;28;20037;-90
2023/03/21 04:29:04;;;;;;;4.70;3.42;;;9.10;99.90;;;;;;4975866;28;20109;-90
2023/03/21 04:31:32;;;;;;;6.20;3.80;;;9.10;99.90;;;;;;4958467;28;20114;-91
2023/03/21 04:33:59;;;;;;;9.65;4.90;;;9.10;99.90;;;;;;4958668;28;20030;-90
2023/03/21 04:36:37;;;;;;;6.32;3.78;;;9.20;99.90;;;;;;4975555;28;20027;-90
2023/03/21 04:39:11;;;;;;;9.60;4.18;;;9.20;99.90;;;;;;4975877;28;20023;-92
2023/03/21 04:41:40;;;;;;;6.75;4.22;;;9.20;99.90;;;;;;4975880;28;20038;-91
2023/03/21 04:44:07;;;;;;;4.40;3.83;;;9.20;99.90;;;;;;4975724;28;20027;-92
2023/03/21 04:46:34;;;;;;;8.48;3.88;;;9.20;99.90;;;;;;4958503;28;20077;-91
2023/03/21 04:49:00;;;;;;;8.23;4.80;;;9.20;99.90;;;;;;4958700;28;20054;-90
2023/03/21 04:51:26;;;;;;;6.88;4.22;;;9.20;99.90;;;;;;4958327;28;20019;-91
2023/03/21 04:53:56;;;;;;;10.05;5.03;;;9.20;99.90;;;;;;4958546;28;20039;-91
2023/03/21 04:56:31;;;;;;;7.43;4.10;;;9.10;99.90;;;;;;4975785;28;20030;-92
2023/03/21 04:59:01;;;;;;;9.68;4.40;;;9.20;99.90;;;;;;4959149;28;20030;-91
2023/03/21 05:01:30;;;;;;;7.15;4.35;;;9.10;99.90;;;;;;4975404;28;20026;-92
2023/03/21 05:04:00;;;;;;;6.82;3.72;;;9.20;99.90;;;;;;4965918;28;20050;-90
2023/03/21 05:06:26;;;;;;;7.10;4.40;;;9.10;99.90;;;;;;4962808;28;20030;-91
2023/03/21 05:08:55;;;;;;;4.97;4.20;;;9.10;99.90;;;;;;4978107;28;20039;-90
2023/03/21 05:11:21;;;;;;;7.95;4.13;;;9.10;99.90;;;;;;4959370;28;20038;-91
2023/03/21 05:13:47;;;;;;;6.35;4.07;;;9.10;99.90;;;;;;4958970;28;20050;-91
2023/03/21 05:16:13;;;;;;;8.23;4.88;;;9.10;99.90;;;;;;4961609;28;20051;-90
2023/03/21 05:18:38;;;;;;;9.18;5.07;;;9.10;99.90;;;;;;4938913;29;20027;-91
2023/03/21 05:21:09;;;;;;;6.28;4.15;;;9.10;99.90;;;;;;4955796;29;20054;-89
2023/03/21 05:23:37;;;;;;;;;;;9.10;99.90;;;;;;4956304;29;20058;-91
2023/03/21 05:26:07;;;;;;;7.28;4.43;;;9.10;99.90;;;;;;4938700;29;20324;-90
2023/03/21 05:28:35;;;;;;;8.55;4.57;;;9.10;99.90;;;;;;4955747;29;20028;-90
2023/03/21 05:31:00;;;;;;;7.68;4.35;;;9.10;99.90;;;;;;4938861;29;20031;-90
2023/03/21 05:33:26;;;;;;;6.55;4.45;;;9.10;99.90;;;;;;4954932;29;20086;-91
2023/03/21 05:35:51;;;;;;;8.20;4.25;;;9.10;99.90;;;;;;4955030;29;20042;-91
2023/03/21 05:38:17;;;;;;;7.95;3.25;;;9.10;99.90;;;;;;4938232;29;20108;-91
2023/03/21 05:40:47;;;;;;;10.13;4.47;;;9.10;99.90;;;;;;4955000;29;20559;-90
2023/03/21 05:43:13;;;;;;;6.93;4.47;;;9.10;99.90;;;;;;4938089;29;20019;-91
2023/03/21 05:45:38;;;;;;;7.05;5.28;;;9.10;99.90;;;;;;4954973;29;20019;-91
2023/03/21 05:48:04;;;;;;;7.15;4.78;;;9.10;99.90;;;;;;4954719;29;20034;-91
2023/03/21 05:50:30;;;;;;;5.93;4.32;;;9.10;99.90;;;;;;4937959;29;20058;-89
2023/03/21 05:52:55;;;;;;;7.40;4.72;;;9.10;99.90;;;;;;4936950;29;20473;-91
2023/03/21 05:55:21;;;;;;;6.15;3.03;;;9.10;99.90;;;;;;4938182;29;20047;-91
2023/03/21 05:57:47;;;;;;;4.78;3.50;;;9.10;99.90;;;;;;4937997;29;20029;-90
2023/03/21 06:00:13;;;;;;;8.23;4.35;;;9.10;99.90;;;;;;4954940;29;20066;-91
2023/03/21 06:02:39;;;;;;;6.50;4.03;;;9.10;99.90;;;;;;4954782;29;20031;-91
2023/03/21 06:05:05;;;;;;;6.43;4.90;;;9.10;99.90;;;;;;4955400;29;20031;-92
2023/03/21 06:07:32;;;;;;;5.50;3.80;;;9.10;99.90;;;;;;4937849;29;20399;-91
2023/03/21 06:09:58;;;;;;;7.57;4.30;;;9.10;99.90;;;;;;4938079;29;20031;-91
2023/03/21 06:12:23;;;;;;;9.45;4.60;;;9.10;99.90;;;;;;4954800;29;20094;-91
2023/03/21 06:14:49;;;;;;;4.82;3.30;;;9.10;99.90;;;;;;4937557;29;20138;-91
2023/03/21 06:17:15;;;;;;;6.90;4.78;;;9.20;99.90;;;;;;4937669;29;20089;-91
2023/03/21 06:19:41;;;;;;;7.28;3.78;;;9.20;99.90;;;;;;4954882;29;20038;-91
2023/03/21 06:22:06;;;;;;;5.05;3.38;;;9.20;99.90;;;;;;4938656;29;20470;-92
2023/03/21 06:24:32;;;;;;;4.93;3.55;;;9.20;99.90;;;;;;4938920;29;20027;-91
2023/03/21 06:26:58;;;;;;;5.20;3.50;;;9.20;99.90;;;;;;4938742;29;20508;-92
2023/03/21 06:29:23;;;;;;;4.65;2.78;;;9.20;99.90;;;;;;4956651;28;20473;-92
2023/03/21 06:31:49;;;;;;;4.68;2.95;;;9.20;99.90;;;;;;4960557;29;20027;-92
2023/03/21 06:34:15;;;;;;;5.35;3.78;;;9.20;99.90;;;;;;4961483;29;20147;-91
2023/03/21 06:36:43;;;;;;;4.70;3.80;;;9.20;99.90;;;;;;4941232;29;20079;-91
2023/03/21 06:39:09;;;;;;;7.10;3.60;;;9.20;99.90;;;;;;4941209;29;20039;-92
2023/03/21 06:41:35;;;;;;;8.35;4.00;;;9.20;99.90;;;;;;4941067;29;20459;-91
2023/03/21 06:44:01;;;;;;;4.10;3.13;;;9.20;99.90;;;;;;4958116;29;20102;-92
2023/03/21 06:46:28;;;;;;;6.45;3.75;;;9.30;99.90;;;;;;4940819;29;20082;-92
2023/03/21 06:48:54;;;;;;;8.13;3.67;;;9.30;99.90;;;;;;4948252;28;20039;-91
2023/03/21 06:51:20;;;;;;;5.32;3.65;;;9.30;99.90;;;;;;4980015;29;20025;-91
2023/03/21 06:53:45;;;;;;;8.63;3.10;;;9.30;99.90;;;;;;4960288;29;20046;-91
2023/03/21 06:56:13;;;;;;;4.53;3.38;;;9.30;99.90;;;;;;4949961;28;20027;-90
2023/03/21 06:58:39;;;;;;;4.63;3.00;;;9.30;99.90;;;;;;4960873;28;20026;-91
2023/03/21 07:01:05;;;;;;;7.07;2.83;;;9.40;99.90;;;;;;4960707;28;20027;-90
2023/03/21 07:03:33;;;;;;;3.47;2.20;;;9.40;99.90;;;;;;4960513;28;20030;-91
2023/03/21 07:06:10;;;;;;;5.78;2.30;;;9.40;99.90;;;;;;4974614;28;20019;-91
2023/03/21 07:08:37;;;;;;;6.53;2.33;;;9.30;99.90;;;;;;4977917;28;20035;-91
2023/03/21 07:11:03;;;;;;;5.22;2.30;;;9.40;99.90;;;;;;4958091;28;20106;-91
2023/03/21 07:13:30;;;;;;;5.05;2.80;;;9.40;99.90;;;;;;4960669;28;20027;-89
2023/03/21 07:15:56;;;;;;;9.02;2.72;;;9.40;99.90;;;;;;4960233;28;20042;-92
2023/03/21 07:18:22;;;;;;;7.78;2.40;;;9.40;99.90;;;;;;4960254;28;20027;-91
2023/03/21 07:20:50;;;;;;;6.80;2.63;;;9.40;99.90;;;;;;4978054;28;20027;-91
2023/03/21 07:23:20;;;;;;;5.88;2.50;;;9.30;99.90;;;;;;4960968;28;20023;-92
2023/03/21 07:25:47;;;;;;;6.55;3.25;;;9.40;99.90;;;;;;4960623;28;20050;-92
2023/03/21 07:28:13;;;;;;;7.00;3.17;;;9.40;99.90;;;;;;4960764;28;20027;-93
2023/03/21 07:30:39;;;;;;;5.32;2.72;;;9.40;99.90;;;;;;4960644;28;20054;-93
2023/03/21 07:33:06;;;;;;;8.82;3.10;;;9.40;99.90;;;;;;4960991;28;20027;-92
2023/03/21 07:35:32;;;;;;;6.25;2.97;;;9.40;99.90;;;;;;4960408;28;20023;-93
2023/03/21 07:37:58;;;;;;;6.75;3.03;;;9.40;99.90;;;;;;4960302;28;20122;-92
2023/03/21 07:40:24;;;;;;;6.18;2.97;;;9.40;99.90;;;;;;4956295;28;20114;-91
2023/03/21 07:42:50;;;;;;;7.07;3.45;;;9.40;99.90;;;;;;4964418;28;20023;-91
2023/03/21 07:45:20;;;;;;;7.32;3.55;;;9.40;99.90;;;;;;4976918;28;20090;-92
2023/03/21 07:47:46;;;;;;;6.50;3.33;;;9.40;99.90;;;;;;4962952;28;20031;-91
2023/03/21 07:50:13;;;;;;;10.85;3.90;;;9.40;99.90;;;;;;4962940;28;20034;-93
2023/03/21 07:52:39;;;;;;;8.80;3.50;;;9.50;99.90;;;;;;4960550;28;20118;-91
2023/03/21 07:55:05;;;;;;;6.72;3.45;;;9.50;99.90;;;;;;4977282;28;20099;-91
2023/03/21 07:57:31;;;;;;;6.82;3.80;;;9.50;99.90;;;;;;4958976;28;20034;-90
2023/03/21 07:59:57;;;;;;;8.27;3.63;;;9.50;99.90;;;;;;4977227;28;20027;-92
2023/03/21 08:02:22;;;;;;;11.32;2.70;;;9.60;99.90;;;;;;4959439;28;20034;-91
2023/03/21 08:04:48;;;;;;;6.07;2.85;;;9.60;99.90;;;;;;4960067;28;20118;-92
2023/03/21 08:07:14;;;;;;;8.13;3.30;;;9.70;99.90;;;;;;4959385;28;20146;-91
2023/03/21 08:09:39;;;;;;;7.13;2.60;;;9.80;99.90;;;;;;4979633;28;20023;-95
2023/03/21 08:12:11;;;;;;;4.70;2.33;;;9.80;99.90;;;;;;4962150;28;20023;-95
2023/03/21 08:14:36;;;;;;;4.28;2.10;;;9.80;99.90;;;;;;4962156;28;20051;-96
2023/03/21 08:17:08;;;;;;;4.88;1.98;;;9.90;99.90;;;;;;4963272;28;20126;-94
2023/03/21 08:19:34;;;;;;;8.25;2.38;;;9.90;99.90;;;;;;4958221;28;20037;-94
2023/03/21 08:22:00;;;;;;;4.47;2.15;;;9.90;99.90;;;;;;4958761;28;20023;-94
2023/03/21 08:24:27;;;;;;;7.20;2.20;;;9.90;99.90;;;;;;4978325;28;20027;-95
2023/03/21 08:26:53;;;;;;;5.78;2.05;;;9.90;99.90;;;;;;4962887;28;20138;-95
2023/03/21 08:29:20;;;;;;;4.82;2.20;;;9.90;99.90;;;;;;4961717;28;20536;-94
2023/03/21 08:31:46;;;;;;;5.57;2.33;;;9.90;99.90;;;;;;4960469;28;20027;-94
2023/03/21 08:34:12;;;;;;;5.38;2.20;;;9.90;99.90;;;;;;4963293;28;20038;-96
2023/03/21 08:36:41;;;;;;;4.00;2.00;;;9.90;99.90;;;;;;4966756;28;20436;-95
2023/03/21 08:39:07;;;;;;;5.68;1.75;;;9.90;99.90;;;;;;4961214;28;20089;-96
2023/03/21 08:41:35;;;;;;;7.85;2.00;;;9.90;99.90;;;;;;4962134;28;20420;-96
2023/03/21 08:44:11;;;;;;;4.60;1.90;;;9.90;99.90;;;;;;4961463;28;20055;-96
2023/03/21 08:46:37;;;;;;;5.68;2.03;;;9.90;99.90;;;;;;4961812;28;20030;-95
2023/03/21 08:49:09;;;;;;;6.20;1.88;;;10.00;99.90;;;;;;4962631;28;20388;-95
2023/03/21 08:51:36;;;;;;;4.03;1.77;;;9.90;99.90;;;;;;4961557;28;20019;-95
2023/03/21 08:54:04;;;;;;;6.97;2.03;;;10.00;99.90;;;;;;4978830;28;20087;-95
2023/03/21 08:56:32;;;;;;;7.75;1.90;;;10.00;99.90;;;;;;4962985;28;20416;-95
2023/03/21 08:58:57;;;;;;;4.50;2.42;;;10.10;99.90;;;;;;4962828;28;20026;-96
2023/03/21 09:01:25;;;;;;;12.02;2.33;;;10.10;99.90;;;;;;4961203;28;20026;-95
2023/03/21 09:03:54;;;;;;;5.38;1.27;;;10.20;99.90;;;;;;4962574;28;20480;-96
2023/03/21 09:06:20;;;;;;;10.82;1.50;;;10.20;99.90;;;;;;4961799;28;20305;-96
2023/03/21 09:08:47;;;;;;;6.35;1.55;;;10.20;99.90;;;;;;4963810;28;20027;-95
2023/03/21 09:11:14;;;;;;;5.47;1.38;;;10.20;99.90;;;;;;4965903;28;20034;-96
2023/03/21 09:13:40;;;;;;;7.43;1.63;;;10.20;99.90;;;;;;4965052;28;20027;-95
2023/03/21 09:16:06;;;;;;;6.43;1.58;;;10.30;99.90;;;;;;4971434;28;20070;-96
2023/03/21 09:18:45;;;;;;;7.70;1.67;;;10.30;99.90;;;;;;4951903;29;20028;-93
2023/03/21 09:21:15;;;;;;;5.00;1.73;;;10.30;99.90;;;;;;4957690;28;20054;-95
2023/03/21 09:23:43;;;;;;;7.88;2.17;;;10.40;99.90;;;;;;4962605;28;20035;-95
2023/03/21 09:26:10;;;;;;;5.25;1.63;;;10.50;99.90;;;;;;4960907;28;20094;-95
2023/03/21 09:28:37;;;;;;;4.38;0.90;;;10.60;99.90;;;;;;4966025;28;20030;-96
2023/03/21 09:31:04;;;;;;;3.17;1.27;;;10.80;99.90;;;;;;4971141;28;20018;-94
2023/03/21 09:33:31;;;;;;;4.32;1.05;;;10.80;99.90;;;;;;4972222;28;20072;-96
2023/03/21 09:35:59;;;;;;;4.55;1.30;;;10.80;99.90;;;;;;4973411;28;20037;-95
2023/03/21 09:38:29;;;;;;;5.88;1.13;;;10.90;99.90;;;;;;4968649;28;20082;-95
2023/03/21 09:41:10;;;;;;;5.85;1.85;;;10.80;99.90;;;;;;4967553;28;20030;-96
2023/03/21 09:44:13;;;;;;;5.50;1.15;;;10.80;99.90;;;;;;4973584;28;20027;-96
2023/03/21 09:47:21;;;;;;;7.25;1.40;;;10.70;99.90;;;;;;4891173;29;20108;-95
2023/03/21 09:50:19;;;;;;;3.95;0.98;;;10.70;99.90;;;;;;4841835;29;20081;-96
2023/03/21 09:53:04;;;;;;;5.95;1.15;;;10.70;99.90;;;;;;4875414;29;20029;-96
2023/03/21 09:56:15;;;;;;;8.93;1.33;;;10.70;99.90;;;;;;4887354;29;20112;-96
2023/03/21 09:58:53;;;;;;;3.58;1.08;;;10.70;99.90;;;;;;4886501;29;20036;-96
2023/03/21 10:01:28;;;;;;;2.40;0.90;;;10.70;99.90;;;;;;4878728;29;20080;-95
2023/03/21 10:04:06;;;;;;;5.10;1.15;;;10.70;99.90;;;;;;4872860;29;20025;-94
2023/03/21 10:06:38;;;;;;;1.88;0.93;;;10.80;99.90;;;;;;4877900;29;20029;-94
2023/03/21 10:09:13;;;;;;;1.90;0.35;;;10.90;99.90;;;;;;4885169;29;20037;-96
2023/03/21 10:11:49;;;;;;;1.08;0.50;;;10.90;99.90;;;;;;4887153;29;20024;-95
2023/03/21 10:14:26;;;;;;;7.43;0.98;;;11.20;99.90;;;;;;4894906;29;20041;-96
2023/03/21 10:16:59;;;;;;;3.28;0.70;;;11.40;99.90;;;;;;4889844;29;20112;-94
2023/03/21 10:19:29;;;;;;;9.35;1.10;;;11.50;99.90;;;;;;4875341;29;20025;-94
2023/03/21 10:21:59;;;;;;;3.93;0.70;;;11.50;99.90;;;;;;4897995;28;20025;-95
2023/03/21 10:24:31;;;;;;;7.60;1.02;;;11.50;99.90;;;;;;4985226;28;20053;-94
2023/03/21 10:26:57;;;;;;;1.48;0.70;;;11.40;99.90;;;;;;4969068;28;20011;-94
2023/03/21 10:29:29;;;;;;;3.33;0.68;;;11.30;99.90;;;;;;4984816;28;20070;-94
2023/03/21 10:31:55;;;;;;;1.48;0.90;;;11.40;99.90;;;;;;4981587;28;20015;-96
2023/03/21 10:34:31;;;;;;;5.28;0.98;;;11.50;99.90;;;;;;4965634;28;20023;-96
2023/03/21 10:36:58;;;;;;;5.15;2.13;;;11.70;99.90;;;;;;4981109;28;20094;-96
2023/03/21 10:39:47;;;;;;;1.92;0.98;;;12.00;99.90;;;;;;4982246;28;20015;-93
2023/03/21 10:42:45;;;;;;;4.97;0.82;;;12.40;99.90;;;;;;4982124;28;20054;-93
2023/03/21 10:45:19;;;;;;;3.33;0.60;;;12.60;99.90;;;;;;4988654;28;20035;-93
2023/03/21 10:47:54;;;;;;;4.70;0.93;;;12.60;99.90;;;;;;4983760;28;20082;-93
2023/03/21 10:50:25;;;;;;;3.50;0.60;;;12.50;99.90;;;;;;4980972;28;20035;-93
2023/03/21 10:53:00;;;;;;;2.92;0.85;;;12.40;99.90;;;;;;4998931;28;20007;-94
2023/03/21 10:55:29;;;;;;;2.88;0.80;;;12.30;99.90;;;;;;4981761;28;20039;-94
2023/03/21 10:58:07;;;;;;;2.55;0.38;;;12.20;99.90;;;;;;4982440;28;20054;-95
2023/03/21 11:00:42;;;;;;;3.85;0.73;;;12.30;99.90;;;;;;4978572;28;20023;-93
2023/03/21 11:03:30;;;;;;;2.47;0.70;;;12.40;99.90;;;;;;4981398;28;20046;-93
2023/03/21 11:06:16;;;;;;;1.83;0.70;;;12.80;99.90;;;;;;4978899;28;20027;-96
2023/03/21 11:09:31;;;;;;;3.47;0.60;;;13.20;99.90;;;;;;4979181;28;20026;-96
2023/03/21 11:12:10;;;;;;;5.90;0.80;;;13.60;99.90;;;;;;4981692;28;20018;-95
2023/03/21 11:14:48;;;;;;;1.73;0.50;;;13.80;99.90;;;;;;4979591;28;20050;-96
2023/03/21 11:17:17;;;;;;;6.75;1.50;;;13.80;99.90;;;;;;4980116;28;20023;-95
2023/03/21 11:20:11;;;;;;;3.38;0.90;;;13.80;99.90;;;;;;4984974;28;20031;-96
2023/03/21 11:22:48;;;;;;;3.20;0.80;;;13.90;99.90;;;;;;4987844;28;20015;-96
2023/03/21 11:25:35;;;;;;;1.77;0.90;;;14.10;99.90;;;;;;4953688;28;20022;-95
2023/03/21 11:28:13;;;;;;;2.25;0.70;;;14.10;99.90;;;;;;4983553;28;20047;-95
2023/03/21 11:30:56;;;;;;;4.32;0.50;;;14.00;99.90;;;;;;4984555;28;20057;-94
2023/03/21 11:33:35;;;;;;;2.15;0.68;;;13.80;99.90;;;;;;4984503;28;20018;-95
2023/03/21 11:36:29;;;;;;;3.15;0.43;;;13.70;99.90;;;;;;4976602;28;20042;-96
2023/03/21 11:39:12;;;;;;;2.65;0.40;;;13.70;99.90;;;;;;4984359;28;20018;-95
2023/03/21 11:41:50;;;;;;;1.48;0.40;;;13.80;99.90;;;;;;4981311;28;20038;-95
2023/03/21 11:46:52;;;;;;;1.42;0.40;;;13.90;99.90;;;;;;5379558;23;19912;-95
2023/03/21 11:49:28;;;;;;;3.08;0.63;;;13.90;99.90;;;;;;4992499;28;20037;-95
2023/03/21 11:52:25;;;;;;;2.38;0.30;;;13.70;99.90;;;;;;5017565;28;20030;-95
2023/03/21 11:55:34;;;;;;;3.45;0.40;;;13.60;99.90;;;;;;5027944;28;20042;-94
2023/03/21 11:58:15;;;;;;;2.30;0.60;;;13.50;99.90;;;;;;4994222;28;20018;-95
2023/03/21 12:01:15;;;;;;;3.80;0.50;;;13.50;99.90;;;;;;5015400;28;20011;-96
2023/03/21 12:03:45;;;;;;;5.57;0.75;;;13.60;99.90;;;;;;4970786;28;20034;-95
2023/03/21 12:06:41;;;;;;;3.20;0.70;;;13.80;99.90;;;;;;5007044;28;20038;-96
2023/03/21 12:09:46;;;;;;;2.67;0.40;;;14.00;99.90;;;;;;5018550;28;20046;-95
2023/03/21 12:12:21;;;;;;;3.25;0.85;;;14.10;99.90;;;;;;5000913;28;20030;-90
2023/03/21 12:15:00;;;;;;;3.78;0.98;;;14.10;99.90;;;;;;5010818;28;20037;-93
2023/03/21 12:17:44;;;;;;;2.17;0.40;;;14.20;99.90;;;;;;4994879;28;20499;-96
2023/03/21 12:20:49;;;;;;;3.45;0.70;;;14.40;99.90;;;;;;5002776;28;20026;-95
2023/03/21 12:23:52;;;;;;;3.45;0.55;;;14.60;99.60;;;;;;5003176;28;20053;-94
2023/03/21 12:26:56;;;;;;;3.35;0.68;;;14.70;97.70;;;;;;4998588;28;20023;-96
2023/03/21 12:29:48;;;;;;;1.77;0.50;;;14.90;97.70;;;;;;4967116;28;20014;-95
2023/03/21 12:33:19;;;;;;;3.65;0.75;;;15.20;97.00;;;;;;5029723;28;20053;-95
2023/03/21 12:36:11;;;;;;;4.55;0.68;;;15.50;95.60;;;;;;4925164;29;20048;-95
2023/03/21 12:39:10;;;;;;;5.28;0.63;;;15.90;95.00;;;;;;4924452;29;20051;-95
2023/03/21 12:41:44;;;;;;;3.67;0.68;;;15.90;92.80;;;;;;4887324;29;20033;-91
2023/03/21 12:44:15;;;;;;;2.65;0.50;;;15.80;92.10;;;;;;4864625;29;20411;-90
2023/03/21 12:46:43;;;;;;;;;;;15.80;92.70;;;;;;4879480;29;20072;-90
2023/03/21 12:49:13;;;;;;;2.85;0.68;;;16.20;93.40;;;;;;4874555;29;19918;-89
2023/03/21 12:51:45;;;;;;;2.55;0.68;;;16.70;92.70;;;;;;4878599;29;20040;-91
2023/03/21 12:54:16;;;;;;;5.97;0.60;;;16.80;91.60;;;;;;4878311;29;20132;-91
2023/03/21 12:57:06;;;;;;;5.70;0.70;;;17.00;91.10;;;;;;4877777;29;20049;-91
2023/03/21 13:00:00;;;;;;;3.72;0.70;;;17.00;90.10;;;;;;4863161;29;20025;-92
2023/03/21 13:02:31;;;;;;;3.60;0.70;;;16.80;89.50;;;;;;4846220;29;20065;-89
2023/03/21 13:05:03;;;;;;;5.40;0.82;;;16.60;89.00;;;;;;4880803;29;20037;-91
2023/03/21 13:07:33;;;;;;;1.60;0.65;;;16.40;89.60;;;;;;4878467;29;20033;-87
2023/03/21 13:10:00;;;;;;;4.40;0.60;;;16.40;90.00;;;;;;4933362;28;20398;-87
2023/03/21 13:12:54;;;;;;;2.80;0.55;;;16.50;89.70;;;;;;4977994;28;20034;-87
2023/03/21 13:15:46;;;;;;;8.52;0.90;;;16.40;89.40;;;;;;4974135;28;20093;-86
2023/03/21 13:35:08;;;;;;;1.30;0.47;;;16.10;91.70;;;;;;5574483;23;20140;-96
2023/03/21 13:37:42;;;;;;;1.63;0.47;;;15.80;92.00;;;;;;4988154;28;20039;-95
2023/03/21 13:43:02;;;;;;;3.85;0.75;;;15.30;93.30;;;;;;5513324;23;20038;-95
2023/03/21 13:45:45;;;;;;;2.38;0.52;;;15.00;94.20;;;;;;4988517;28;20030;-93